Highest pressure

Not for real navigation. The accuracy of this data is not assured See disclaimer for more information



ICAO NAME COUNTRY WIND Kt GUST Kt VIS m TEMP/DEW C BARO METAR
SPJL Juliaca Peru 5 0 9999 7/3 30.65 SPJL 261200Z 10005KT 020V160 9999 FEW040 SCT100 07/03 Q1038 RMK TN 04.9 PP000
CYBG Bagotville, Que. Canada 4 0 32767 -16/-22 30.63 CYBG 261200Z 29004KT 25SM FEW160 SCT220 M16/M22 A3063 RMK AC1CI3 SLP387
SLLP La Paz / Alto Bolivia 6 0 9999 7/5 30.62 SLLP 261200Z 07006KT 9999 FEW005 FEW017CB 07/05 Q1037
CYRQ 4 0 9999 -10/-17 30.61 CYRQ 261200Z AUTO 03004KT 360V070 9SM CAVOK M10/M17 A3061 RMK SLP371
CYQB Quebec, Que Canada 6 0 24000 -10/-18 30.61 CYQB 261200Z 01006KT 15SM FEW120 SCT220 M10/M18 A3061 RMK AC1CC4 AC TR SLP374

Show more